< Cyclone 199004 1990 Season Cyclone 199006 >
Cyclone 199005 (NANCY)
General InformationTrack Information on Google MapsDetailed Wind InformationList of All Images || ResourceGoogle EarthGE AnimationAtom FeedGeoJSON
Detalied Best Track (Time Zone = UTC)
Year Month Day Hour Lat. Long. Pressure (hPa) Wind (kt) Class Image Chart
1990 1 28 06 -18.2 156.0 1000 12 2 Image --
1990 1 28 12 -18.2 155.0 1000 12 2 Image --
1990 1 28 18 -17.6 154.1 999 19 2 Image --
1990 1 29 00 -16.9 153.0 998 29 2 Image --
1990 1 29 06 -16.5 152.2 995 33 2 Image --
1990 1 29 12 -15.8 151.9 995 33 2 Image --
1990 1 29 18 -14.9 152.6 995 33 2 Image --
1990 1 30 00 -14.7 154.0 995 33 2 Image --
1990 1 30 06 -14.7 155.5 995 35 3 Image --
1990 1 30 12 -14.7 156.8 991 37 3 Image --
1990 1 30 18 -15.4 158.4 991 37 3 Image --
1990 1 31 00 -16.7 159.9 990 41 3 Image --
1990 1 31 06 -17.9 160.5 988 43 3 Image --
1990 1 31 12 -19.2 160.7 988 47 3 Image --
1990 1 31 18 -21.2 160.7 980 49 4 Image --
1990 2 1 00 -23.0 159.8 980 51 4 Image --
1990 2 1 06 -25.2 156.8 975 54 4 Image --
1990 2 1 12 -25.3 155.0 980 49 4 Image --
1990 2 1 18 -24.8 154.9 985 43 3 Image --
1990 2 2 00 -25.8 154.8 985 43 3 Image --
1990 2 2 06 -27.1 154.1 980 41 3 Image --
1990 2 2 12 -26.9 153.8 980 41 3 Image --
1990 2 2 18 -27.6 153.7 980 37 3 Image --
1990 2 3 00 -28.0 153.8 980 37 3 Image --
1990 2 3 06 -29.0 153.9 980 35 3 Image --
1990 2 3 12 -29.5 153.8 985 33 2 Image --
1990 2 3 18 -30.4 153.8 986 29 2 Image --
1990 2 4 00 -31.3 154.0 989 27 2 Image --
1990 2 4 06 -32.8 154.0 990 21 2 Image --
1990 2 4 12 -34.4 155.0 995 16 2 Image --
< Cyclone 199004 1990 Season Cyclone 199006 >

Help